createdAt,value
2018-09-09T00:01:30.154Z,15.80
2018-09-09T00:03:59.491Z,18.80
2018-09-09T00:06:29.906Z,18.60
2018-09-09T00:08:59.757Z,16.30
2018-09-09T00:11:29.333Z,26.30
2018-09-09T00:13:59.132Z,16.50
2018-09-09T00:16:29.097Z,23.60
2018-09-09T00:18:58.493Z,22.60
2018-09-09T00:21:27.440Z,17.17
2018-09-09T00:23:56.426Z,27.90
2018-09-09T00:26:26.021Z,18.53
2018-09-09T00:28:55.414Z,16.77
2018-09-09T00:31:25.198Z,16.73
2018-09-09T00:33:54.693Z,17.43
2018-09-09T00:36:24.648Z,17.10
2018-09-09T00:38:55.577Z,17.00
2018-09-09T00:41:25.535Z,15.20
2018-09-09T00:43:54.767Z,15.60
2018-09-09T00:46:24.786Z,18.97
2018-09-09T00:48:58.849Z,16.43
2018-09-09T00:51:33.417Z,15.33
2018-09-09T00:54:02.950Z,14.17
2018-09-09T00:56:34.297Z,15.70
2018-09-09T00:59:03.543Z,19.10
2018-09-09T01:01:34.005Z,17.20
2018-09-09T01:04:04.677Z,14.30
2018-09-09T01:06:34.090Z,19.27
2018-09-09T01:09:03.793Z,15.60
2018-09-09T01:11:33.614Z,14.10
2018-09-09T01:14:02.594Z,18.03
2018-09-09T01:16:32.067Z,14.63
2018-09-09T01:19:01.315Z,16.80
2018-09-09T01:21:30.414Z,21.10
2018-09-09T01:24:00.433Z,15.80
2018-09-09T01:26:30.045Z,16.10
2018-09-09T01:28:59.158Z,12.90
2018-09-09T01:31:29.584Z,13.67
2018-09-09T01:33:59.403Z,15.00
2018-09-09T01:36:28.655Z,16.37
2018-09-09T01:38:57.429Z,14.37
2018-09-09T01:41:26.729Z,14.50
2018-09-09T01:43:56.143Z,16.73
2018-09-09T01:46:25.549Z,15.03
2018-09-09T01:48:54.541Z,13.63
2018-09-09T01:51:23.580Z,15.30
2018-09-09T01:53:52.644Z,15.90
2018-09-09T01:56:22.771Z,14.37
2018-09-09T01:58:51.980Z,15.30
2018-09-09T02:01:20.879Z,15.47
2018-09-09T02:03:50.688Z,13.50
2018-09-09T02:06:20.699Z,14.50
2018-09-09T02:08:50.716Z,12.67
2018-09-09T02:11:19.811Z,12.27
2018-09-09T02:13:48.835Z,19.60
2018-09-09T02:16:18.126Z,15.90
2018-09-09T02:18:47.088Z,15.43
2018-09-09T02:21:16.735Z,17.57
2018-09-09T02:23:46.222Z,13.17
2018-09-09T02:26:15.596Z,15.43
2018-09-09T02:28:44.815Z,15.57
2018-09-09T02:31:14.910Z,16.97
2018-09-09T02:33:44.304Z,14.27
2018-09-09T02:36:14.302Z,12.90
2018-09-09T02:38:44.154Z,20.43
2018-09-09T02:41:14.031Z,14.53
2018-09-09T02:43:43.234Z,20.53
2018-09-09T02:46:12.144Z,14.13
2018-09-09T02:48:41.486Z,16.40
2018-09-09T02:51:10.409Z,12.53
2018-09-09T02:53:40.176Z,16.30
2018-09-09T02:56:10.901Z,14.30
2018-09-09T02:58:39.878Z,15.07
2018-09-09T03:01:09.919Z,17.20
2018-09-09T03:03:40.312Z,13.77
2018-09-09T03:06:10.696Z,15.23
2018-09-09T03:08:40.713Z,14.97
2018-09-09T03:11:14.328Z,18.77
2018-09-09T03:13:45.314Z,13.83
2018-09-09T03:16:14.539Z,17.03
2018-09-09T03:18:44.289Z,14.50
2018-09-09T03:21:13.517Z,15.50
2018-09-09T03:23:44.922Z,12.77
2018-09-09T03:26:14.500Z,12.00
2018-09-09T03:28:43.498Z,13.93
2018-09-09T03:31:12.349Z,12.27
2018-09-09T03:33:41.648Z,15.47
2018-09-09T03:36:10.575Z,14.90
2018-09-09T03:38:40.931Z,19.07
2018-09-09T03:41:10.230Z,15.57
2018-09-09T03:43:39.218Z,13.60
2018-09-09T03:46:08.862Z,13.40
2018-09-09T03:48:39.857Z,15.43
2018-09-09T03:51:09.704Z,16.10
2018-09-09T03:53:38.866Z,12.60
2018-09-09T03:56:08.046Z,12.63
2018-09-09T03:58:37.657Z,26.93
2018-09-09T04:01:07.323Z,11.90
2018-09-09T04:03:36.623Z,14.30
2018-09-09T04:06:12.210Z,13.40
2018-09-09T04:08:42.020Z,12.67
2018-09-09T04:11:11.906Z,18.13
2018-09-09T04:13:42.363Z,12.50
2018-09-09T04:16:13.465Z,12.27
2018-09-09T04:18:43.666Z,16.90
2018-09-09T04:21:12.749Z,18.40
2018-09-09T04:23:41.940Z,13.20
2018-09-09T04:26:11.235Z,14.63
2018-09-09T04:28:41.064Z,13.83
2018-09-09T04:31:10.983Z,18.10
2018-09-09T04:33:40.295Z,13.90
2018-09-09T04:36:09.612Z,15.20
2018-09-09T04:38:38.749Z,16.30
2018-09-09T04:41:08.929Z,16.47
2018-09-09T04:43:37.774Z,12.80
2018-09-09T04:46:06.945Z,13.77
2018-09-09T04:48:37.930Z,16.20
2018-09-09T04:51:06.910Z,13.50
2018-09-09T04:53:36.103Z,14.67
2018-09-09T04:56:05.150Z,15.30
2018-09-09T04:58:34.258Z,12.70
2018-09-09T05:01:04.333Z,12.70
2018-09-09T05:03:33.868Z,12.67
2018-09-09T05:06:02.902Z,15.10
2018-09-09T05:08:32.445Z,16.40
2018-09-09T05:11:02.402Z,21.27
2018-09-09T05:13:32.678Z,15.97
2018-09-09T05:16:01.984Z,14.17
2018-09-09T05:18:31.672Z,13.63
2018-09-09T05:21:01.878Z,13.77
2018-09-09T05:23:31.125Z,17.90
2018-09-09T05:26:00.710Z,15.80
2018-09-09T05:28:30.148Z,13.57
2018-09-09T05:30:59.812Z,17.50
2018-09-09T05:33:29.412Z,16.10
2018-09-09T05:35:58.973Z,14.17
2018-09-09T05:38:29.626Z,16.53
2018-09-09T05:40:59.350Z,17.80
2018-09-09T05:43:28.566Z,15.33
2018-09-09T05:45:58.981Z,14.43
2018-09-09T05:48:27.914Z,22.23
2018-09-09T05:50:58.012Z,20.23
2018-09-09T05:53:27.179Z,14.53
2018-09-09T05:55:56.593Z,13.37
2018-09-09T05:58:26.103Z,14.90
2018-09-09T06:00:55.818Z,14.83
2018-09-09T06:03:25.897Z,14.60
2018-09-09T06:05:55.759Z,16.27
2018-09-09T06:08:25.155Z,17.53
2018-09-09T06:10:54.741Z,16.10
2018-09-09T06:13:25.869Z,18.07
2018-09-09T06:15:55.746Z,14.77
2018-09-09T06:18:25.018Z,19.90
2018-09-09T06:20:54.435Z,14.87
2018-09-09T06:23:23.824Z,26.07
2018-09-09T06:25:53.021Z,15.70
2018-09-09T06:28:22.073Z,16.50
2018-09-09T06:30:51.271Z,17.07
2018-09-09T06:33:20.297Z,16.60
2018-09-09T06:35:49.523Z,15.50
2018-09-09T06:38:18.623Z,15.17
2018-09-09T06:40:48.252Z,16.63
2018-09-09T06:43:18.154Z,14.83
2018-09-09T06:45:48.455Z,17.93
2018-09-09T06:48:18.006Z,24.73
2018-09-09T06:50:47.249Z,17.40
2018-09-09T06:53:16.358Z,13.43
2018-09-09T06:55:45.992Z,14.47
2018-09-09T06:58:14.959Z,17.97
2018-09-09T07:00:44.633Z,15.63
2018-09-09T07:03:14.499Z,15.83
2018-09-09T07:05:43.970Z,19.73
2018-09-09T07:08:13.712Z,17.50
2018-09-09T07:10:42.873Z,19.60
2018-09-09T07:13:12.820Z,13.20
2018-09-09T07:15:42.787Z,24.87
2018-09-09T07:18:11.934Z,19.70
2018-09-09T07:20:41.901Z,15.30
2018-09-09T07:23:12.049Z,29.33
2018-09-09T07:25:40.972Z,16.00
2018-09-09T07:28:10.630Z,18.90
2018-09-09T07:30:40.385Z,15.10
2018-09-09T07:33:10.258Z,23.83
2018-09-09T07:35:40.034Z,15.10
2018-09-09T07:38:09.066Z,17.53
2018-09-09T07:40:39.164Z,16.67
2018-09-09T07:43:10.211Z,17.10
2018-09-09T07:45:40.046Z,14.53
2018-09-09T07:48:09.482Z,20.33
2018-09-09T07:50:38.742Z,14.50
2018-09-09T07:53:08.207Z,12.87
2018-09-09T07:55:38.434Z,13.20
2018-09-09T07:58:10.429Z,13.13
2018-09-09T08:00:41.555Z,16.50
2018-09-09T08:03:11.455Z,16.20
2018-09-09T08:05:41.364Z,23.27
2018-09-09T08:08:10.866Z,16.00
2018-09-09T08:10:39.766Z,13.50
2018-09-09T08:13:09.245Z,14.93
2018-09-09T08:15:38.081Z,12.47
2018-09-09T08:18:07.279Z,15.00
2018-09-09T08:20:37.876Z,15.70
2018-09-09T08:23:07.717Z,12.70
2018-09-09T08:25:36.891Z,15.77
2018-09-09T08:28:07.009Z,11.70
2018-09-09T08:30:36.617Z,14.90
2018-09-09T08:33:05.687Z,17.50
2018-09-09T08:35:36.213Z,13.90
2018-09-09T08:38:06.892Z,19.90
2018-09-09T08:40:35.959Z,22.90
2018-09-09T08:43:05.234Z,17.30
2018-09-09T08:45:34.873Z,13.10
2018-09-09T08:48:04.016Z,12.13
2018-09-09T08:50:33.370Z,11.47
2018-09-09T08:53:02.229Z,10.87
2018-09-09T08:55:32.600Z,14.30
2018-09-09T08:58:02.529Z,16.07
2018-09-09T09:00:31.537Z,11.43
2018-09-09T09:03:01.663Z,13.67
2018-09-09T09:05:31.000Z,11.00
2018-09-09T09:08:01.561Z,12.07
2018-09-09T09:10:30.691Z,13.27
2018-09-09T09:13:00.327Z,17.17
2018-09-09T09:15:29.762Z,12.77
2018-09-09T09:17:59.256Z,26.13
2018-09-09T09:20:30.027Z,11.10
2018-09-09T09:22:59.439Z,14.20
2018-09-09T09:25:28.579Z,14.03
2018-09-09T09:27:58.641Z,15.43
2018-09-09T09:30:27.654Z,12.90
2018-09-09T09:32:56.961Z,14.10
2018-09-09T09:35:31.117Z,15.30
2018-09-09T09:38:00.372Z,10.87
2018-09-09T09:40:30.263Z,11.90
2018-09-09T09:43:01.069Z,11.53
2018-09-09T09:45:30.015Z,13.53
2018-09-09T09:47:59.491Z,11.03
2018-09-09T09:50:28.836Z,12.97
2018-09-09T09:52:58.825Z,12.07
2018-09-09T09:55:28.769Z,12.27
2018-09-09T09:57:58.131Z,17.07
2018-09-09T10:00:32.532Z,15.37
2018-09-09T10:03:01.314Z,11.87
2018-09-09T10:05:30.011Z,12.83
2018-09-09T10:07:58.942Z,15.53
2018-09-09T10:10:27.667Z,10.90
2018-09-09T10:12:57.051Z,15.40
2018-09-09T10:15:25.799Z,13.30
2018-09-09T10:17:55.073Z,21.17
2018-09-09T10:20:23.809Z,14.47
2018-09-09T10:22:53.023Z,14.17
2018-09-09T10:25:21.806Z,11.50
2018-09-09T10:27:51.318Z,13.03
2018-09-09T10:30:20.147Z,13.53
2018-09-09T10:32:49.538Z,12.43
2018-09-09T10:35:18.386Z,13.10
2018-09-09T10:37:47.623Z,13.70
2018-09-09T10:40:16.784Z,14.70
2018-09-09T10:42:45.877Z,11.53
2018-09-09T10:45:15.234Z,10.83
2018-09-09T10:47:44.252Z,10.57
2018-09-09T10:50:13.193Z,10.47
2018-09-09T10:52:41.952Z,11.70
2018-09-09T10:55:11.552Z,9.77
2018-09-09T10:57:40.291Z,12.27
2018-09-09T11:00:09.064Z,14.00
2018-09-09T11:02:37.922Z,11.70
2018-09-09T11:05:06.718Z,14.03
2018-09-09T11:07:35.455Z,12.50
2018-09-09T11:10:04.294Z,11.03
2018-09-09T11:12:33.500Z,14.90
2018-09-09T11:15:02.787Z,18.10
2018-09-09T11:17:32.351Z,13.07
2018-09-09T11:20:01.090Z,14.77
2018-09-09T11:22:30.703Z,20.97
2018-09-09T11:24:59.484Z,13.20
2018-09-09T11:27:28.257Z,11.63
2018-09-09T11:29:57.142Z,14.27
2018-09-09T11:32:25.880Z,13.80
2018-09-09T11:34:54.838Z,10.30
2018-09-09T11:37:23.674Z,11.87
2018-09-09T11:39:52.893Z,14.27
2018-09-09T11:42:22.013Z,13.00
2018-09-09T11:44:50.813Z,13.20
2018-09-09T11:47:19.846Z,14.53
2018-09-09T11:49:48.765Z,11.77
2018-09-09T11:52:17.830Z,29.27
2018-09-09T11:54:46.668Z,11.37
2018-09-09T11:57:15.501Z,17.50
2018-09-09T11:59:44.343Z,13.23
2018-09-09T12:02:13.118Z,9.93
2018-09-09T12:04:41.823Z,10.70
2018-09-09T12:07:10.869Z,11.10
2018-09-09T12:09:39.559Z,11.93
2018-09-09T12:12:08.387Z,11.33
2018-09-09T12:14:37.428Z,11.73
2018-09-09T12:17:06.885Z,10.23
2018-09-09T12:19:35.668Z,11.43
2018-09-09T12:22:04.819Z,8.97
2018-09-09T12:24:34.167Z,10.40
2018-09-09T12:27:03.214Z,9.60
2018-09-09T12:29:32.274Z,13.73
2018-09-09T12:32:01.063Z,9.15
2018-09-09T12:34:30.366Z,10.28
2018-09-09T12:36:59.170Z,9.43
2018-09-09T12:39:27.910Z,8.77
2018-09-09T12:41:56.656Z,11.75
2018-09-09T12:44:30.563Z,8.70
2018-09-09T12:47:04.887Z,9.53
2018-09-09T12:49:33.624Z,9.23
2018-09-09T12:52:02.814Z,9.40
2018-09-09T12:54:31.970Z,9.78
2018-09-09T12:57:01.015Z,10.47
2018-09-09T12:59:30.007Z,12.43
2018-09-09T13:01:58.809Z,10.07
2018-09-09T13:04:27.638Z,10.10
2018-09-09T13:06:56.390Z,11.60
2018-09-09T13:09:25.160Z,10.10
2018-09-09T13:11:53.870Z,11.33
2018-09-09T13:14:22.943Z,14.03
2018-09-09T13:16:52.580Z,13.10
2018-09-09T13:19:21.449Z,14.53
2018-09-09T13:21:50.562Z,10.33
2018-09-09T13:24:19.324Z,14.63
2018-09-09T13:26:48.158Z,14.03
2018-09-09T13:29:17.001Z,10.70
2018-09-09T13:31:45.935Z,12.23
2018-09-09T13:34:14.742Z,11.20
2018-09-09T13:36:43.903Z,10.07
2018-09-09T13:39:12.758Z,10.20
2018-09-09T13:41:41.588Z,13.30
2018-09-09T13:44:10.551Z,16.70
2018-09-09T13:46:39.492Z,13.00
2018-09-09T13:49:08.342Z,10.23
2018-09-09T13:51:37.090Z,9.67
2018-09-09T13:54:06.012Z,11.77
2018-09-09T13:56:34.877Z,11.10
2018-09-09T13:59:03.716Z,11.27
2018-09-09T14:01:32.556Z,10.17
2018-09-09T14:04:01.363Z,12.87
2018-09-09T14:06:30.203Z,13.00
2018-09-09T14:08:59.293Z,10.93
2018-09-09T14:11:28.035Z,11.73
2018-09-09T14:13:56.741Z,10.20
2018-09-09T14:16:25.562Z,13.47
2018-09-09T14:18:54.764Z,12.03
2018-09-09T14:21:23.790Z,13.70
2018-09-09T14:23:52.925Z,12.93
2018-09-09T14:26:21.773Z,19.27
2018-09-09T14:28:50.726Z,10.03
2018-09-09T14:31:19.459Z,12.23
2018-09-09T14:33:48.509Z,10.87
2018-09-09T14:36:17.266Z,11.30
2018-09-09T14:38:45.977Z,12.17
2018-09-09T14:41:14.925Z,12.03
2018-09-09T14:43:43.983Z,13.17
2018-09-09T14:46:13.049Z,11.20
2018-09-09T14:48:41.774Z,17.33
2018-09-09T14:51:11.161Z,14.53
2018-09-09T14:53:40.216Z,12.50
2018-09-09T14:56:09.033Z,11.70
2018-09-09T14:58:37.824Z,9.63
2018-09-09T15:01:06.709Z,10.67
2018-09-09T15:03:36.487Z,10.00
2018-09-09T15:06:05.400Z,9.73
2018-09-09T15:08:34.345Z,11.23
2018-09-09T15:11:03.181Z,12.57
2018-09-09T15:13:33.294Z,10.60
2018-09-09T15:16:02.197Z,11.23
2018-09-09T15:18:32.126Z,12.00
2018-09-09T15:21:02.094Z,9.80
2018-09-09T15:23:31.162Z,11.10
2018-09-09T15:26:00.080Z,12.30
2018-09-09T15:28:29.018Z,9.90
2018-09-09T15:30:57.907Z,12.27
2018-09-09T15:33:26.634Z,12.20
2018-09-09T15:35:55.485Z,11.60
2018-09-09T15:38:24.231Z,11.63
2018-09-09T15:40:53.095Z,10.50
2018-09-09T15:43:21.834Z,14.30
2018-09-09T15:45:50.963Z,11.90
2018-09-09T15:48:19.873Z,10.60
2018-09-09T15:50:49.306Z,12.80
2018-09-09T15:53:18.170Z,9.97
2018-09-09T15:55:47.579Z,9.40
2018-09-09T15:58:16.251Z,14.40
2018-09-09T16:00:45.366Z,12.67
2018-09-09T16:03:14.561Z,13.60
2018-09-09T16:05:43.401Z,10.30
2018-09-09T16:08:13.582Z,15.07
2018-09-09T16:10:43.734Z,14.20
2018-09-09T16:13:13.743Z,10.33
2018-09-09T16:15:42.921Z,11.23
2018-09-09T16:18:12.772Z,17.30
2018-09-09T16:20:42.183Z,14.93
2018-09-09T16:23:11.286Z,10.30
2018-09-09T16:25:42.261Z,11.30
2018-09-09T16:28:11.287Z,12.43
2018-09-09T16:30:40.743Z,13.23
2018-09-09T16:33:10.581Z,10.10
2018-09-09T16:35:40.648Z,13.03
2018-09-09T16:38:11.256Z,15.93
2018-09-09T16:40:41.337Z,11.23
2018-09-09T16:43:10.501Z,10.83
2018-09-09T16:45:39.379Z,10.70
2018-09-09T16:48:08.123Z,11.10
2018-09-09T16:50:38.137Z,11.10
2018-09-09T16:53:08.076Z,10.83
2018-09-09T16:55:37.388Z,18.77
2018-09-09T16:58:07.576Z,19.97
2018-09-09T17:00:37.935Z,13.93
2018-09-09T17:03:08.047Z,12.40
2018-09-09T17:05:37.559Z,15.53
2018-09-09T17:08:06.267Z,18.93
2018-09-09T17:10:35.308Z,15.83
2018-09-09T17:13:04.403Z,16.80
2018-09-09T17:15:34.318Z,13.17
2018-09-09T17:18:03.421Z,18.50
2018-09-09T17:20:32.841Z,12.83
2018-09-09T17:23:01.940Z,10.50
2018-09-09T17:25:31.045Z,15.60
2018-09-09T17:28:00.193Z,11.97
2018-09-09T17:30:28.948Z,16.20
2018-09-09T17:32:58.227Z,16.00
2018-09-09T17:35:28.077Z,11.67
2018-09-09T17:37:56.799Z,13.83
2018-09-09T17:40:25.831Z,12.07
2018-09-09T17:42:55.228Z,14.83
2018-09-09T17:45:24.885Z,13.83
2018-09-09T17:47:53.693Z,11.87
2018-09-09T17:50:22.486Z,10.40
2018-09-09T17:52:51.444Z,16.20
2018-09-09T17:55:20.193Z,14.30
2018-09-09T17:57:49.190Z,14.47
2018-09-09T18:00:18.236Z,12.50
2018-09-09T18:02:47.618Z,23.37
2018-09-09T18:05:16.666Z,12.07
2018-09-09T18:07:45.473Z,15.07
2018-09-09T18:10:14.683Z,15.70
2018-09-09T18:12:44.275Z,17.47
2018-09-09T18:15:13.807Z,18.43
2018-09-09T18:17:42.668Z,18.90
2018-09-09T18:20:13.031Z,15.10
2018-09-09T18:22:42.555Z,16.07
2018-09-09T18:25:11.752Z,22.70
2018-09-09T18:27:40.912Z,17.53
2018-09-09T18:30:11.441Z,15.30
2018-09-09T18:32:41.219Z,31.53
2018-09-09T18:35:10.104Z,17.17
2018-09-09T18:37:39.319Z,27.83
2018-09-09T18:40:08.414Z,21.13
2018-09-09T18:42:37.716Z,18.10
2018-09-09T18:45:08.296Z,14.70
2018-09-09T18:47:37.094Z,19.90
2018-09-09T18:50:06.395Z,18.83
2018-09-09T18:52:41.824Z,22.77
2018-09-09T18:55:10.705Z,20.43
2018-09-09T18:57:39.508Z,19.20
2018-09-09T19:00:08.298Z,17.03
2018-09-09T19:02:37.072Z,16.70
2018-09-09T19:05:06.042Z,25.30
2018-09-09T19:07:35.017Z,17.70
2018-09-09T19:10:04.095Z,22.30
2018-09-09T19:12:33.094Z,17.20
2018-09-09T19:15:03.382Z,21.03
2018-09-09T19:17:32.510Z,28.63
2018-09-09T19:20:02.996Z,22.13
2018-09-09T19:22:31.892Z,23.27
2018-09-09T19:25:01.939Z,21.83
2018-09-09T19:27:33.085Z,18.77
2018-09-09T19:30:02.406Z,19.10
2018-09-09T19:32:31.120Z,24.10
2018-09-09T19:34:59.907Z,19.40
2018-09-09T19:37:28.846Z,19.90
2018-09-09T19:39:57.668Z,22.13
2018-09-09T19:42:26.647Z,21.60
2018-09-09T19:44:56.544Z,24.87
2018-09-09T19:47:25.717Z,20.70
2018-09-09T19:49:55.754Z,23.17
2018-09-09T19:52:25.296Z,23.23
2018-09-09T19:54:54.227Z,24.97
2018-09-09T19:57:23.160Z,20.27
2018-09-09T19:59:52.188Z,18.70
2018-09-09T20:02:22.047Z,22.80
2018-09-09T20:04:51.526Z,24.33
2018-09-09T20:07:20.313Z,19.57
2018-09-09T20:09:50.086Z,31.00
2018-09-09T20:12:19.176Z,21.00
2018-09-09T20:14:48.071Z,28.20
2018-09-09T20:17:16.898Z,30.90
2018-09-09T20:19:46.861Z,25.17
2018-09-09T20:22:16.777Z,23.47
2018-09-09T20:24:46.946Z,26.60
2018-09-09T20:27:17.330Z,28.30
2018-09-09T20:29:49.144Z,28.80
2018-09-09T20:32:18.781Z,28.20
2018-09-09T20:34:47.620Z,40.33
2018-09-09T20:37:16.796Z,25.43
2018-09-09T20:39:45.938Z,30.17
2018-09-09T20:42:15.443Z,25.53
2018-09-09T20:44:45.522Z,26.87
2018-09-09T20:47:15.123Z,22.83
2018-09-09T20:49:44.128Z,23.33
2018-09-09T20:52:14.003Z,26.20
2018-09-09T20:54:45.381Z,29.53
2018-09-09T20:57:14.399Z,27.63
2018-09-09T20:59:43.597Z,23.37
2018-09-09T21:02:14.043Z,25.47
2018-09-09T21:04:43.408Z,23.20
2018-09-09T21:07:12.928Z,26.13
2018-09-09T21:09:43.623Z,26.40
2018-09-09T21:12:13.045Z,31.00
2018-09-09T21:14:42.922Z,26.27
2018-09-09T21:17:11.875Z,22.00
2018-09-09T21:19:41.483Z,36.40
2018-09-09T21:22:11.519Z,27.30
2018-09-09T21:24:41.354Z,23.60
2018-09-09T21:27:10.216Z,24.87
2018-09-09T21:29:39.532Z,21.10
2018-09-09T21:32:09.126Z,24.83
2018-09-09T21:34:38.778Z,23.50
2018-09-09T21:37:08.025Z,24.77
2018-09-09T21:39:37.299Z,23.60
2018-09-09T21:42:06.527Z,24.57
2018-09-09T21:44:36.960Z,19.13
2018-09-09T21:47:06.395Z,22.17
2018-09-09T21:49:35.454Z,19.97
2018-09-09T21:52:04.332Z,25.20
2018-09-09T21:54:33.501Z,18.50
2018-09-09T21:57:03.858Z,21.00
2018-09-09T21:59:33.590Z,22.10
2018-09-09T22:02:04.094Z,26.50
2018-09-09T22:04:33.730Z,23.17
2018-09-09T22:07:03.793Z,19.73
2018-09-09T22:09:33.159Z,21.70
2018-09-09T22:12:02.201Z,30.23
2018-09-09T22:14:31.727Z,16.13
2018-09-09T22:17:01.060Z,21.43
2018-09-09T22:19:30.115Z,21.57
2018-09-09T22:21:59.133Z,18.93
2018-09-09T22:24:29.251Z,17.47
2018-09-09T22:26:58.116Z,17.60
2018-09-09T22:29:26.979Z,17.40
2018-09-09T22:31:56.738Z,20.03
2018-09-09T22:34:26.629Z,18.27
2018-09-09T22:36:56.962Z,18.03
2018-09-09T22:39:26.077Z,15.23
2018-09-09T22:41:55.377Z,16.57
2018-09-09T22:44:24.437Z,30.03
2018-09-09T22:46:53.695Z,13.83
2018-09-09T22:49:23.829Z,17.00
2018-09-09T22:51:53.157Z,24.83
2018-09-09T22:54:22.958Z,16.00
2018-09-09T22:56:51.977Z,15.30
2018-09-09T22:59:20.959Z,18.83
2018-09-09T23:01:51.009Z,18.17
2018-09-09T23:04:20.110Z,16.90
2018-09-09T23:06:49.378Z,18.70
2018-09-09T23:09:19.204Z,26.47
2018-09-09T23:11:48.759Z,16.47
2018-09-09T23:14:18.423Z,16.73
2018-09-09T23:16:47.728Z,15.93
2018-09-09T23:19:18.390Z,17.30
2018-09-09T23:21:47.281Z,14.77
2018-09-09T23:24:16.743Z,17.17
2018-09-09T23:26:47.337Z,15.80
2018-09-09T23:29:17.460Z,19.40
2018-09-09T23:31:46.687Z,15.40
2018-09-09T23:34:16.044Z,18.40
2018-09-09T23:36:46.187Z,21.17
2018-09-09T23:39:15.875Z,15.40
2018-09-09T23:41:45.696Z,15.00
2018-09-09T23:44:14.802Z,17.47
2018-09-09T23:46:44.697Z,21.87
2018-09-09T23:49:14.728Z,26.20
2018-09-09T23:51:45.163Z,18.50
2018-09-09T23:54:14.913Z,16.70
2018-09-09T23:56:45.241Z,19.80
2018-09-09T23:59:14.394Z,14.47
